createdAt,value
2022-08-07T00:01:43.345Z,100390.97
2022-08-07T00:04:30.610Z,100388.50
2022-08-07T00:07:40.530Z,100392.31
2022-08-07T00:10:47.994Z,100392.97
2022-08-07T00:14:00.145Z,100391.75
2022-08-07T00:17:06.655Z,100396.16
2022-08-07T00:20:10.179Z,100391.88
2022-08-07T00:23:21.119Z,100390.75
2022-08-07T00:26:49.466Z,100379.91
2022-08-07T00:29:47.258Z,100382.06
2022-08-07T00:32:50.549Z,100385.09
2022-08-07T00:35:55.895Z,100383.88
2022-08-07T00:38:59.163Z,100391.41
2022-08-07T00:42:05.219Z,100389.16
2022-08-07T00:45:16.142Z,100395.47
2022-08-07T00:48:19.574Z,100393.69
2022-08-07T00:51:57.403Z,100391.09
2022-08-07T00:54:57.111Z,100386.69
2022-08-07T00:58:00.138Z,100391.84
2022-08-07T01:01:03.231Z,100395.25
2022-08-07T01:04:07.579Z,100391.62
2022-08-07T01:07:12.671Z,100388.03
2022-08-07T01:10:18.387Z,100384.75
2022-08-07T01:13:22.074Z,100388.12
2022-08-07T01:16:30.230Z,100390.28
2022-08-07T01:19:34.655Z,100390.16
2022-08-07T01:22:54.159Z,100390.16
2022-08-07T01:26:11.998Z,100386.78
2022-08-07T01:29:17.316Z,100386.09
2022-08-07T01:32:22.466Z,100384.09
2022-08-07T01:35:52.945Z,100375.75
2022-08-07T01:38:53.119Z,100381.72
2022-08-07T01:42:37.174Z,100384.84
2022-08-07T01:45:23.064Z,100379.00
2022-08-07T01:48:46.688Z,100383.25
2022-08-07T01:52:03.677Z,100381.00
2022-08-07T01:55:22.280Z,100381.44
2022-08-07T01:58:33.484Z,100388.09
2022-08-07T02:02:04.298Z,100392.25
2022-08-07T02:05:47.555Z,100377.59
2022-08-07T02:08:54.232Z,100384.84
2022-08-07T02:12:17.740Z,100391.59
2022-08-07T02:15:23.652Z,100383.25
2022-08-07T02:18:33.011Z,100382.94
2022-08-07T02:21:55.232Z,100383.84
2022-08-07T02:25:00.847Z,100377.66
2022-08-07T02:28:06.918Z,100387.34
2022-08-07T02:31:28.061Z,100389.50
2022-08-07T02:34:34.129Z,100393.91
2022-08-07T02:37:44.166Z,100393.91
2022-08-07T02:40:50.487Z,100401.44
2022-08-07T02:43:59.435Z,100406.06
2022-08-07T02:47:04.421Z,100409.44
2022-08-07T02:50:08.088Z,100409.22
2022-08-07T02:53:18.083Z,100400.66
2022-08-07T02:56:26.044Z,100394.34
2022-08-07T02:59:32.410Z,100395.91
2022-08-07T03:02:37.623Z,100397.97
2022-08-07T03:05:57.231Z,100405.38
2022-08-07T03:09:06.037Z,100404.81
2022-08-07T03:12:16.206Z,100398.59
2022-08-07T03:15:30.314Z,100397.03
2022-08-07T03:18:50.086Z,100396.47
2022-08-07T03:21:53.194Z,100400.63
2022-08-07T03:24:57.356Z,100415.59
2022-08-07T03:28:09.382Z,100418.84
2022-08-07T03:31:42.845Z,100431.25
2022-08-07T03:35:01.158Z,100429.03
2022-08-07T03:38:17.215Z,100430.81
2022-08-07T03:41:42.079Z,100436.22
2022-08-07T03:44:53.419Z,100429.22
2022-08-07T03:48:00.938Z,100431.03
2022-08-07T03:51:05.408Z,100425.88
2022-08-07T03:54:35.140Z,100427.88
2022-08-07T03:58:08.859Z,100425.75
2022-08-07T04:01:03.772Z,100436.38
2022-08-07T04:04:17.226Z,100426.69
2022-08-07T04:07:22.842Z,100431.06
2022-08-07T04:10:26.561Z,100439.41
2022-08-07T04:14:10.745Z,100436.00
2022-08-07T04:16:59.011Z,100439.66
2022-08-07T04:20:11.293Z,100435.12
2022-08-07T04:23:19.295Z,100445.03
2022-08-07T04:26:23.108Z,100449.63
2022-08-07T04:29:48.822Z,100452.78
2022-08-07T04:32:58.154Z,100463.16
2022-08-07T04:36:06.610Z,100462.62
2022-08-07T04:39:10.544Z,100474.37
2022-08-07T04:42:13.761Z,100485.53
2022-08-07T04:45:22.408Z,100485.16
2022-08-07T04:49:24.212Z,100481.91
2022-08-07T04:52:34.166Z,100482.03
2022-08-07T04:58:14.164Z,100489.78
2022-08-07T05:00:11.956Z,100494.13
2022-08-07T05:03:59.619Z,100501.00
2022-08-07T05:07:20.609Z,100492.72
2022-08-07T05:10:35.241Z,100499.94
2022-08-07T05:14:53.336Z,100495.50
2022-08-07T05:17:13.928Z,100487.16
2022-08-07T05:20:50.266Z,100498.25
2022-08-07T05:23:59.814Z,100505.06
2022-08-07T05:27:08.453Z,100498.37
2022-08-07T05:30:33.227Z,100487.25
2022-08-07T05:33:38.765Z,100506.69
2022-08-07T05:36:44.957Z,100512.41
2022-08-07T05:40:14.320Z,100516.50
2022-08-07T05:43:18.623Z,100518.59
2022-08-07T05:46:23.142Z,100525.56
2022-08-07T05:49:41.014Z,100521.59
2022-08-07T05:52:44.171Z,100529.78
2022-08-07T05:56:03.551Z,100519.19
2022-08-07T05:59:17.429Z,100514.03
2022-08-07T06:02:28.440Z,100517.38
2022-08-07T06:05:34.404Z,100516.78
2022-08-07T06:08:44.190Z,100518.22
2022-08-07T06:11:50.180Z,100526.03
2022-08-07T06:14:55.168Z,100528.78
2022-08-07T06:18:07.203Z,100524.72
2022-08-07T06:22:14.300Z,100531.06
2022-08-07T06:24:52.733Z,100537.97
2022-08-07T06:28:07.412Z,100534.75
2022-08-07T06:31:11.656Z,100536.25
2022-08-07T06:34:14.591Z,100529.69
2022-08-07T06:37:20.679Z,100530.00
2022-08-07T06:40:25.421Z,100527.81
2022-08-07T06:43:39.255Z,100526.09
2022-08-07T06:46:43.084Z,100540.56
2022-08-07T06:49:58.545Z,100541.31
2022-08-07T06:53:04.224Z,100536.59
2022-08-07T06:56:15.526Z,100553.53
2022-08-07T07:00:12.088Z,100542.84
2022-08-07T07:02:54.613Z,100540.19
2022-08-07T07:06:01.839Z,100542.13
2022-08-07T07:09:16.649Z,100544.50
2022-08-07T07:12:30.700Z,100545.66
2022-08-07T07:15:39.670Z,100548.09
2022-08-07T07:18:50.209Z,100540.78
2022-08-07T07:22:05.309Z,100553.44
2022-08-07T07:26:35.524Z,100554.63
2022-08-07T07:29:40.493Z,100553.44
2022-08-07T07:32:28.711Z,100551.63
2022-08-07T07:35:54.513Z,100551.75
2022-08-07T07:39:00.461Z,100551.22
2022-08-07T07:42:12.945Z,100566.06
2022-08-07T07:45:19.172Z,100559.94
2022-08-07T07:48:35.948Z,100554.72
2022-08-07T07:51:57.516Z,100560.69
2022-08-07T07:55:04.224Z,100565.22
2022-08-07T07:58:07.519Z,100569.53
2022-08-07T08:02:01.888Z,100562.37
2022-08-07T08:04:43.540Z,100564.97
2022-08-07T08:07:59.523Z,100561.03
2022-08-07T08:11:16.279Z,100563.84
2022-08-07T08:14:36.369Z,100563.06
2022-08-07T08:17:57.687Z,100557.19
2022-08-07T08:21:02.661Z,100557.28
2022-08-07T08:24:44.844Z,100564.00
2022-08-07T08:27:56.361Z,100561.81
2022-08-07T08:31:06.677Z,100557.66
2022-08-07T08:34:12.447Z,100548.59
2022-08-07T08:38:01.161Z,100554.03
2022-08-07T08:41:11.910Z,100552.16
2022-08-07T08:44:44.600Z,100550.41
2022-08-07T08:48:28.479Z,100551.03
2022-08-07T08:52:12.798Z,100557.50
2022-08-07T08:55:54.350Z,100560.69
2022-08-07T08:58:57.131Z,100562.53
2022-08-07T09:02:34.673Z,100552.44
2022-08-07T09:05:59.433Z,100551.47
2022-08-07T09:09:47.546Z,100550.94
2022-08-07T09:13:15.002Z,100557.00
2022-08-07T09:16:45.595Z,100563.34
2022-08-07T09:19:59.621Z,100557.34
2022-08-07T09:24:32.558Z,100559.78
2022-08-07T09:27:24.856Z,100556.75
2022-08-07T09:30:54.278Z,100543.13
2022-08-07T09:33:58.277Z,100550.25
2022-08-07T09:37:08.073Z,100545.53
2022-08-07T09:40:26.530Z,100536.88
2022-08-07T09:44:05.422Z,100540.69
2022-08-07T09:47:57.765Z,100525.78
2022-08-07T09:51:14.820Z,100530.56
2022-08-07T09:54:45.474Z,100521.13
2022-08-07T09:58:03.946Z,100525.34
2022-08-07T10:01:52.088Z,100526.72
2022-08-07T10:05:59.631Z,100520.00
2022-08-07T10:09:23.833Z,100516.81
2022-08-07T10:13:29.873Z,100514.19
2022-08-07T10:17:16.830Z,100506.38
2022-08-07T10:20:39.436Z,100504.03
2022-08-07T10:24:05.881Z,100504.81
2022-08-07T10:27:51.398Z,100502.66
2022-08-07T10:30:57.748Z,100493.47
2022-08-07T10:34:32.185Z,100487.56
2022-08-07T10:38:09.609Z,100482.91
2022-08-07T10:41:51.224Z,100480.13
2022-08-07T10:45:16.923Z,100477.44
2022-08-07T10:48:39.872Z,100480.69
2022-08-07T10:52:01.605Z,100473.66
2022-08-07T10:55:37.887Z,100469.72
2022-08-07T10:59:21.641Z,100473.28
2022-08-07T11:02:38.144Z,100473.19
2022-08-07T11:06:21.826Z,100466.94
2022-08-07T11:10:08.971Z,100459.28
2022-08-07T11:14:42.618Z,100453.69
2022-08-07T11:17:43.112Z,100454.37
2022-08-07T11:21:14.761Z,100451.31
2022-08-07T11:24:33.598Z,100444.72
2022-08-07T11:28:02.513Z,100432.44
2022-08-07T11:31:24.824Z,100434.16
2022-08-07T11:34:42.534Z,100436.50
2022-08-07T11:38:12.715Z,100428.88
2022-08-07T11:41:29.673Z,100425.31
2022-08-07T11:45:20.457Z,100427.28
2022-08-07T11:49:51.043Z,100427.69
2022-08-07T11:52:42.906Z,100416.81
2022-08-07T11:56:27.006Z,100409.03
2022-08-07T12:00:19.793Z,100413.03
2022-08-07T12:03:41.538Z,100408.22
2022-08-07T12:07:17.274Z,100403.19
2022-08-07T12:10:35.390Z,100399.75
2022-08-07T12:13:47.765Z,100398.31
2022-08-07T12:17:04.289Z,100396.84
2022-08-07T12:20:29.691Z,100389.53
2022-08-07T12:24:07.317Z,100384.09
2022-08-07T12:27:18.651Z,100386.47
2022-08-07T12:30:34.838Z,100388.94
2022-08-07T12:34:01.486Z,100383.16
2022-08-07T12:37:08.819Z,100377.66
2022-08-07T12:40:46.827Z,100372.25
2022-08-07T12:44:03.554Z,100368.00
2022-08-07T12:47:30.736Z,100370.84
2022-08-07T12:50:55.648Z,100365.19
2022-08-07T12:54:36.459Z,100370.84
2022-08-07T12:57:38.927Z,100365.72
2022-08-07T13:01:19.659Z,100359.88
2022-08-07T13:05:01.391Z,100350.44
2022-08-07T13:08:33.999Z,100361.28
2022-08-07T13:12:03.322Z,100355.78
2022-08-07T13:15:29.772Z,100349.56
2022-08-07T13:19:02.750Z,100343.25
2022-08-07T13:22:19.864Z,100347.44
2022-08-07T13:25:39.466Z,100352.50
2022-08-07T13:29:01.307Z,100349.13
2022-08-07T13:32:31.832Z,100340.16
2022-08-07T13:36:01.070Z,100338.00
2022-08-07T13:40:34.232Z,100326.34
2022-08-07T13:43:04.838Z,100326.53
2022-08-07T13:46:24.802Z,100313.88
2022-08-07T13:50:34.785Z,100312.16
2022-08-07T13:53:02.934Z,100295.19
2022-08-07T13:56:06.411Z,100300.53
2022-08-07T13:59:21.535Z,100295.28
2022-08-07T14:02:33.328Z,100282.47
2022-08-07T14:05:38.334Z,100292.97
2022-08-07T14:08:48.724Z,100288.44
2022-08-07T14:12:07.376Z,100286.97
2022-08-07T14:15:35.903Z,100293.78
2022-08-07T14:18:44.926Z,100284.37
2022-08-07T14:22:04.266Z,100274.75
2022-08-07T14:25:18.242Z,100280.59
2022-08-07T14:28:33.226Z,100283.34
2022-08-07T14:31:56.642Z,100265.72
2022-08-07T14:35:03.905Z,100267.63
2022-08-07T14:38:09.260Z,100263.69
2022-08-07T14:42:22.383Z,100267.06
2022-08-07T14:45:21.724Z,100265.66
2022-08-07T14:48:33.220Z,100252.00
2022-08-07T14:52:05.143Z,100257.31
2022-08-07T14:55:02.833Z,100245.09
2022-08-07T14:58:07.281Z,100246.22
2022-08-07T15:01:42.262Z,100247.13
2022-08-07T15:04:53.288Z,100245.34
2022-08-07T15:07:58.509Z,100244.59
2022-08-07T15:11:10.151Z,100244.00
2022-08-07T15:14:25.413Z,100235.25
2022-08-07T15:17:54.668Z,100232.38
2022-08-07T15:21:04.013Z,100228.91
2022-08-07T15:25:13.905Z,100227.13
2022-08-07T15:31:10.704Z,100235.25
2022-08-07T15:34:17.152Z,100228.06
2022-08-07T15:37:29.164Z,100226.19
2022-08-07T15:44:20.894Z,100224.03
2022-08-07T15:48:00.229Z,100229.56
2022-08-07T15:54:25.715Z,100220.06
2022-08-07T15:57:39.834Z,100220.00
2022-08-07T16:00:51.867Z,100205.25
2022-08-07T16:04:03.152Z,100216.13
2022-08-07T16:08:29.113Z,100213.13
2022-08-07T16:10:47.151Z,100216.37
2022-08-07T16:14:05.395Z,100214.94
2022-08-07T16:18:02.028Z,100215.31
2022-08-07T16:21:53.735Z,100218.69
2022-08-07T16:24:33.969Z,100215.44
2022-08-07T16:29:18.917Z,100213.19
2022-08-07T16:31:57.353Z,100210.88
2022-08-07T16:35:51.841Z,100211.31
2022-08-07T16:39:20.853Z,100210.13
2022-08-07T16:43:07.561Z,100210.56
2022-08-07T16:50:38.897Z,100207.09
2022-08-07T16:54:06.403Z,100210.63
2022-08-07T16:58:00.872Z,100215.34
2022-08-07T17:01:23.970Z,100209.13
2022-08-07T17:05:05.577Z,100208.75
2022-08-07T17:08:09.047Z,100213.06
2022-08-07T17:12:04.325Z,100212.31
2022-08-07T17:15:03.139Z,100218.59
2022-08-07T17:18:36.215Z,100220.16
2022-08-07T17:21:51.378Z,100217.06
2022-08-07T17:25:08.235Z,100219.00
2022-08-07T17:28:25.275Z,100217.44
2022-08-07T17:31:33.959Z,100220.97
2022-08-07T17:35:40.630Z,100223.31
2022-08-07T17:38:33.915Z,100223.28
2022-08-07T17:42:36.314Z,100220.97
2022-08-07T17:46:22.775Z,100227.22
2022-08-07T17:50:01.030Z,100234.56
2022-08-07T17:53:52.588Z,100239.63
2022-08-07T17:56:36.136Z,100238.84
2022-08-07T17:59:58.643Z,100247.03
2022-08-07T18:03:09.559Z,100256.72
2022-08-07T18:06:16.745Z,100260.22
2022-08-07T18:10:06.596Z,100255.94
2022-08-07T18:13:40.681Z,100266.81
2022-08-07T18:16:58.264Z,100270.25
2022-08-07T18:21:07.143Z,100266.63
2022-08-07T18:24:07.648Z,100277.53
2022-08-07T18:27:17.217Z,100282.97
2022-08-07T18:30:31.254Z,100287.56
2022-08-07T18:34:34.838Z,100293.78
2022-08-07T18:38:57.675Z,100281.19
2022-08-07T18:41:44.885Z,100286.97
2022-08-07T18:45:43.219Z,100292.66
2022-08-07T18:50:32.509Z,100295.75
2022-08-07T18:52:54.304Z,100307.38
2022-08-07T18:56:37.692Z,100298.75
2022-08-07T19:00:04.371Z,100300.31
2022-08-07T19:03:49.453Z,100315.37
2022-08-07T19:07:01.886Z,100311.75
2022-08-07T19:10:21.898Z,100316.84
2022-08-07T19:13:50.111Z,100321.84
2022-08-07T19:17:07.092Z,100330.31
2022-08-07T19:20:29.097Z,100339.31
2022-08-07T19:23:58.811Z,100340.50
2022-08-07T19:28:57.981Z,100341.66
2022-08-07T19:31:05.544Z,100339.44
2022-08-07T19:34:02.998Z,100342.97
2022-08-07T19:37:17.036Z,100346.75
2022-08-07T19:40:30.933Z,100344.50
2022-08-07T19:43:48.592Z,100347.62
2022-08-07T19:47:11.582Z,100344.06
2022-08-07T19:50:41.142Z,100348.16
2022-08-07T19:54:34.344Z,100357.47
2022-08-07T19:58:02.756Z,100353.53
2022-08-07T20:00:55.425Z,100363.53
2022-08-07T20:04:01.437Z,100370.34
2022-08-07T20:07:09.078Z,100369.09
2022-08-07T20:10:35.846Z,100374.66
2022-08-07T20:13:53.885Z,100380.84
2022-08-07T20:16:59.331Z,100384.44
2022-08-07T20:20:07.308Z,100392.41
2022-08-07T20:23:32.938Z,100384.22
2022-08-07T20:26:44.966Z,100397.81
2022-08-07T20:29:59.226Z,100404.38
2022-08-07T20:33:36.271Z,100399.66
2022-08-07T20:36:33.810Z,100398.44
2022-08-07T20:40:03.600Z,100393.22
2022-08-07T20:43:09.713Z,100387.47
2022-08-07T20:46:31.126Z,100390.50
2022-08-07T20:50:00.834Z,100390.81
2022-08-07T20:53:05.791Z,100389.50
2022-08-07T20:56:10.552Z,100387.03
2022-08-07T21:00:04.218Z,100397.63
2022-08-07T21:02:58.610Z,100397.47
2022-08-07T21:06:21.765Z,100400.47
2022-08-07T21:09:35.580Z,100410.22
2022-08-07T21:12:58.122Z,100411.13
2022-08-07T21:16:04.300Z,100420.47
2022-08-07T21:19:13.956Z,100406.56
2022-08-07T21:22:19.087Z,100416.09
2022-08-07T21:25:43.979Z,100422.06
2022-08-07T21:29:15.916Z,100414.88
2022-08-07T21:32:43.125Z,100418.88
2022-08-07T21:36:05.630Z,100428.72
2022-08-07T21:39:48.176Z,100416.00
2022-08-07T21:43:04.530Z,100424.50
2022-08-07T21:46:24.508Z,100431.59
2022-08-07T21:50:02.694Z,100436.97
2022-08-07T21:53:17.145Z,100443.09
2022-08-07T21:56:49.675Z,100442.72
2022-08-07T22:00:05.188Z,100437.44
2022-08-07T22:03:16.727Z,100453.91
2022-08-07T22:06:45.278Z,100456.78
2022-08-07T22:09:57.786Z,100458.28
2022-08-07T22:13:09.227Z,100453.53
2022-08-07T22:16:44.520Z,100449.84
2022-08-07T22:20:02.794Z,100464.37
2022-08-07T22:23:30.558Z,100457.19
2022-08-07T22:26:46.866Z,100463.38
2022-08-07T22:29:56.673Z,100463.00
2022-08-07T22:33:01.690Z,100456.59
2022-08-07T22:36:32.869Z,100465.53
2022-08-07T22:39:52.448Z,100473.22
2022-08-07T22:43:07.571Z,100475.28
2022-08-07T22:47:01.929Z,100476.09
2022-08-07T22:50:09.021Z,100479.00
2022-08-07T22:54:07.736Z,100493.19
2022-08-07T22:57:33.007Z,100493.31
2022-08-07T23:00:48.747Z,100493.06
2022-08-07T23:04:11.810Z,100486.66
2022-08-07T23:07:53.867Z,100481.78
2022-08-07T23:11:18.185Z,100483.84
2022-08-07T23:15:08.027Z,100488.47
2022-08-07T23:18:32.122Z,100484.81
2022-08-07T23:21:56.415Z,100493.16
2022-08-07T23:25:34.473Z,100495.28
2022-08-07T23:29:42.793Z,100486.53
2022-08-07T23:34:23.081Z,100494.37
2022-08-07T23:36:35.847Z,100493.47
2022-08-07T23:40:07.447Z,100495.16
2022-08-07T23:43:38.014Z,100498.28
2022-08-07T23:47:08.710Z,100489.03
2022-08-07T23:50:37.496Z,100497.16
2022-08-07T23:54:11.673Z,100496.38
2022-08-07T23:57:44.710Z,100493.88
